createdAt,value
2023-02-25T00:03:08.446Z,75.30
2023-02-25T00:06:50.168Z,75.30
2023-02-25T00:10:32.182Z,75.30
2023-02-25T00:14:14.609Z,75.30
2023-02-25T00:17:56.958Z,75.30
2023-02-25T00:21:38.651Z,75.30
2023-02-25T00:25:20.345Z,75.30
2023-02-25T00:29:02.054Z,75.30
2023-02-25T00:32:43.824Z,75.20
2023-02-25T00:36:27.113Z,75.20
2023-02-25T00:40:15.527Z,75.20
2023-02-25T00:44:01.617Z,75.20
2023-02-25T00:47:43.451Z,75.20
2023-02-25T00:51:28.667Z,75.20
2023-02-25T00:55:10.599Z,75.20
2023-02-25T00:58:53.108Z,75.20
2023-02-25T01:02:34.876Z,75.20
2023-02-25T01:06:16.943Z,75.20
2023-02-25T01:09:58.869Z,75.20
2023-02-25T01:13:41.011Z,75.30
2023-02-25T01:17:23.214Z,75.30
2023-02-25T01:21:06.109Z,75.20
2023-02-25T01:24:47.822Z,75.30
2023-02-25T01:28:29.499Z,75.30
2023-02-25T01:32:14.310Z,75.30
2023-02-25T01:35:56.102Z,75.30
2023-02-25T01:39:40.383Z,75.10
2023-02-25T01:43:22.077Z,75.10
2023-02-25T01:47:05.051Z,75.10
2023-02-25T01:50:53.715Z,75.00
2023-02-25T01:54:37.091Z,75.00
2023-02-25T01:58:19.851Z,75.00
2023-02-25T02:02:02.138Z,75.00
2023-02-25T02:06:08.331Z,75.00
2023-02-25T02:09:59.909Z,75.00
2023-02-25T02:13:49.028Z,74.90
2023-02-25T02:17:40.600Z,74.90
2023-02-25T02:21:47.887Z,74.90
2023-02-25T02:25:35.417Z,74.80
2023-02-25T02:29:38.879Z,74.80
2023-02-25T02:33:44.818Z,74.90
2023-02-25T02:37:33.047Z,74.90
2023-02-25T02:41:14.705Z,75.00
2023-02-25T02:45:18.588Z,75.00
2023-02-25T02:49:09.577Z,75.10
2023-02-25T02:52:56.262Z,74.90
2023-02-25T02:56:42.238Z,74.80
2023-02-25T03:00:28.288Z,74.70
2023-02-25T03:04:14.527Z,74.60
2023-02-25T03:08:05.656Z,74.40
2023-02-25T03:11:47.493Z,74.30
2023-02-25T03:15:31.179Z,74.40
2023-02-25T03:19:18.371Z,74.50
2023-02-25T03:23:03.683Z,74.50
2023-02-25T03:26:45.449Z,74.60
2023-02-25T03:30:40.083Z,74.50
2023-02-25T03:34:36.627Z,74.50
2023-02-25T03:38:22.462Z,74.50
2023-02-25T03:42:06.204Z,74.40
2023-02-25T03:45:48.504Z,74.40
2023-02-25T03:49:46.488Z,74.50
2023-02-25T03:53:30.071Z,74.50
2023-02-25T03:57:11.774Z,74.50
2023-02-25T04:00:57.737Z,74.50
2023-02-25T04:04:39.619Z,74.40
2023-02-25T04:08:21.319Z,74.50
2023-02-25T04:12:03.063Z,74.50
2023-02-25T04:15:45.688Z,74.60
2023-02-25T04:19:28.660Z,74.60
2023-02-25T04:23:16.943Z,74.70
2023-02-25T04:27:01.558Z,74.60
2023-02-25T04:30:43.537Z,74.60
2023-02-25T04:34:25.596Z,74.80
2023-02-25T04:38:09.213Z,74.90
2023-02-25T04:41:51.184Z,75.00
2023-02-25T04:45:33.003Z,75.20
2023-02-25T04:49:14.906Z,75.30
2023-02-25T04:52:59.172Z,75.40
2023-02-25T04:56:41.114Z,75.50
2023-02-25T05:00:29.797Z,75.60
2023-02-25T05:04:11.551Z,75.70
2023-02-25T05:07:53.287Z,75.80
2023-02-25T05:11:34.988Z,75.80
2023-02-25T05:15:16.727Z,75.80
2023-02-25T05:18:58.493Z,75.80
2023-02-25T05:22:41.606Z,75.80
2023-02-25T05:26:25.281Z,75.80
2023-02-25T05:30:08.247Z,75.70
2023-02-25T05:33:50.062Z,75.70
2023-02-25T05:37:32.351Z,75.60
2023-02-25T05:41:15.146Z,75.60
2023-02-25T05:44:56.865Z,75.70
2023-02-25T05:48:42.495Z,75.70
2023-02-25T05:52:24.559Z,75.70
2023-02-25T05:56:09.722Z,75.60
2023-02-25T05:59:51.536Z,75.60
2023-02-25T06:03:33.298Z,75.70
2023-02-25T06:07:15.434Z,75.80
2023-02-25T06:10:57.798Z,75.90
2023-02-25T06:14:39.522Z,75.90
2023-02-25T06:18:21.493Z,75.90
2023-02-25T06:22:03.343Z,75.90
2023-02-25T06:25:45.114Z,75.90
2023-02-25T06:29:27.087Z,75.80
2023-02-25T06:33:08.790Z,75.80
2023-02-25T06:36:50.511Z,75.70
2023-02-25T06:40:33.549Z,75.50
2023-02-25T06:44:15.906Z,75.50
2023-02-25T06:47:58.643Z,75.50
2023-02-25T06:51:40.329Z,75.60
2023-02-25T06:55:22.142Z,75.60
2023-02-25T06:59:04.118Z,75.60
2023-02-25T07:02:45.829Z,75.60
2023-02-25T07:06:27.649Z,75.60
2023-02-25T07:10:11.483Z,75.70
2023-02-25T07:13:53.283Z,75.70
2023-02-25T07:17:35.016Z,75.70
2023-02-25T07:21:17.853Z,75.70
2023-02-25T07:24:59.904Z,75.70
2023-02-25T07:28:42.441Z,75.70
2023-02-25T07:32:25.374Z,75.70
2023-02-25T07:36:07.517Z,75.60
2023-02-25T07:39:49.244Z,75.60
2023-02-25T07:43:30.994Z,75.60
2023-02-25T07:47:12.707Z,75.60
2023-02-25T07:50:55.284Z,75.70
2023-02-25T07:54:37.052Z,75.80
2023-02-25T07:58:18.737Z,75.80
2023-02-25T08:02:00.764Z,75.80
2023-02-25T08:05:42.469Z,75.70
2023-02-25T08:09:24.173Z,75.70
2023-02-25T08:13:05.969Z,75.80
2023-02-25T08:16:48.691Z,75.70
2023-02-25T08:20:30.420Z,75.80
2023-02-25T08:24:12.279Z,75.80
2023-02-25T08:27:53.985Z,75.80
2023-02-25T08:31:35.846Z,75.70
2023-02-25T08:35:17.739Z,75.70
2023-02-25T08:39:00.256Z,75.70
2023-02-25T08:42:42.024Z,75.50
2023-02-25T08:46:26.502Z,75.50
2023-02-25T08:50:09.861Z,75.50
2023-02-25T08:53:52.287Z,75.50
2023-02-25T08:57:34.205Z,75.40
2023-02-25T09:01:17.773Z,75.50
2023-02-25T09:04:59.556Z,75.30
2023-02-25T09:08:41.245Z,75.30
2023-02-25T09:12:24.831Z,75.20
2023-02-25T09:16:07.129Z,75.10
2023-02-25T09:19:49.096Z,75.20
2023-02-25T09:23:30.812Z,75.10
2023-02-25T09:27:12.732Z,75.00
2023-02-25T09:30:56.680Z,75.00
2023-02-25T09:34:38.566Z,75.00
2023-02-25T09:38:20.775Z,75.00
2023-02-25T09:42:09.610Z,74.90
2023-02-25T09:45:53.999Z,74.80
2023-02-25T09:50:00.386Z,74.70
2023-02-25T09:53:47.739Z,74.40
2023-02-25T09:57:32.047Z,74.50
2023-02-25T10:01:22.113Z,74.30
2023-02-25T10:05:14.836Z,74.40
2023-02-25T10:09:02.822Z,74.30
2023-02-25T10:12:47.623Z,74.20
2023-02-25T10:16:45.780Z,73.90
2023-02-25T10:21:07.751Z,73.80
2023-02-25T10:24:59.451Z,73.60
2023-02-25T10:28:44.197Z,74.00
2023-02-25T10:32:30.961Z,73.80
2023-02-25T10:36:31.221Z,73.80
2023-02-25T10:40:20.409Z,73.70
2023-02-25T10:44:02.506Z,73.30
2023-02-25T10:47:49.076Z,73.10
2023-02-25T10:51:30.840Z,72.70
2023-02-25T10:55:29.488Z,72.90
2023-02-25T10:59:28.402Z,71.80
2023-02-25T11:03:23.532Z,71.30
2023-02-25T11:07:28.114Z,71.80
2023-02-25T11:11:22.391Z,71.30
2023-02-25T11:15:50.089Z,71.80
2023-02-25T11:19:59.720Z,71.00
2023-02-25T11:23:46.604Z,70.60
2023-02-25T11:27:39.396Z,71.10
2023-02-25T11:31:30.844Z,70.70
2023-02-25T11:35:24.436Z,70.80
2023-02-25T11:39:26.715Z,70.30
2023-02-25T11:43:19.486Z,70.40
2023-02-25T11:47:21.990Z,70.10
2023-02-25T11:51:19.760Z,69.60
2023-02-25T11:55:12.618Z,69.30
2023-02-25T11:59:07.195Z,69.90
2023-02-25T12:03:19.857Z,69.80
2023-02-25T12:07:22.226Z,68.60
2023-02-25T12:11:28.897Z,68.60
2023-02-25T12:15:37.709Z,69.00
2023-02-25T12:19:57.225Z,68.30
2023-02-25T12:24:07.207Z,67.40
2023-02-25T12:28:07.730Z,68.00
2023-02-25T12:32:16.236Z,67.30
2023-02-25T12:36:16.135Z,67.70
2023-02-25T12:40:09.849Z,67.70
2023-02-25T12:44:10.110Z,68.40
2023-02-25T12:48:04.047Z,67.80
2023-02-25T12:51:54.317Z,68.30
2023-02-25T12:56:10.722Z,68.40
2023-02-25T13:00:16.121Z,67.80
2023-02-25T13:04:23.535Z,68.00
2023-02-25T13:08:49.511Z,67.40
2023-02-25T13:13:12.072Z,67.10
2023-02-25T13:16:58.655Z,67.50
2023-02-25T13:20:40.346Z,68.00
2023-02-25T13:24:37.868Z,68.00
2023-02-25T13:28:44.397Z,68.20
2023-02-25T13:32:32.558Z,67.90
2023-02-25T13:36:20.651Z,68.00
2023-02-25T13:40:27.085Z,67.70
2023-02-25T13:44:41.984Z,67.40
2023-02-25T13:48:57.711Z,66.40
2023-02-25T13:53:17.676Z,65.90
2023-02-25T13:57:05.555Z,66.10
2023-02-25T14:01:12.651Z,66.30
2023-02-25T14:05:41.008Z,65.90
2023-02-25T14:09:41.586Z,65.10
2023-02-25T14:13:29.497Z,65.00
2023-02-25T14:17:48.110Z,65.40
2023-02-25T14:21:48.366Z,64.60
2023-02-25T14:25:58.060Z,64.10
2023-02-25T14:30:08.486Z,64.00
2023-02-25T14:34:22.115Z,64.00
2023-02-25T14:38:15.596Z,63.20
2023-02-25T14:42:28.633Z,64.10
2023-02-25T14:46:30.780Z,63.40
2023-02-25T14:50:22.600Z,63.60
2023-02-25T14:54:13.057Z,63.70
2023-02-25T14:58:19.464Z,63.80
2023-02-25T15:02:38.117Z,63.20
2023-02-25T15:06:36.546Z,63.40
2023-02-25T15:10:26.922Z,63.90
2023-02-25T15:14:46.369Z,63.70
2023-02-25T15:18:58.376Z,63.60
2023-02-25T15:23:11.833Z,63.70
2023-02-25T15:26:55.335Z,63.70
2023-02-25T15:31:05.346Z,64.20
2023-02-25T15:35:21.457Z,63.10
2023-02-25T15:39:03.461Z,63.00
2023-02-25T15:42:54.193Z,64.10
2023-02-25T15:46:35.990Z,63.70
2023-02-25T15:50:39.264Z,63.50
2023-02-25T15:54:45.952Z,62.50
2023-02-25T15:58:30.487Z,62.80
2023-02-25T16:02:30.339Z,63.80
2023-02-25T16:06:20.036Z,63.30
2023-02-25T16:10:08.226Z,63.40
2023-02-25T16:13:51.251Z,63.40
2023-02-25T16:17:35.632Z,63.30
2023-02-25T16:21:38.764Z,63.60
2023-02-25T16:25:30.216Z,63.50
2023-02-25T16:29:49.591Z,63.90
2023-02-25T16:33:51.261Z,63.70
2023-02-25T16:37:41.284Z,63.80
2023-02-25T16:41:30.314Z,64.00
2023-02-25T16:45:34.828Z,64.20
2023-02-25T16:49:28.607Z,64.10
2023-02-25T16:53:18.329Z,64.20
2023-02-25T16:57:02.952Z,64.50
2023-02-25T17:00:56.546Z,64.40
2023-02-25T17:04:38.559Z,63.90
2023-02-25T17:08:20.271Z,63.90
2023-02-25T17:12:03.888Z,64.00
2023-02-25T17:15:45.775Z,63.90
2023-02-25T17:19:28.098Z,64.10
2023-02-25T17:23:13.062Z,64.20
2023-02-25T17:26:55.157Z,64.30
2023-02-25T17:30:46.163Z,64.30
2023-02-25T17:34:34.323Z,64.40
2023-02-25T17:38:17.920Z,64.30
2023-02-25T17:42:00.033Z,63.70
2023-02-25T17:45:47.181Z,64.30
2023-02-25T17:49:31.659Z,64.50
2023-02-25T17:53:40.587Z,64.60
2023-02-25T17:57:23.320Z,64.60
2023-02-25T18:01:05.763Z,64.10
2023-02-25T18:04:50.883Z,64.60
2023-02-25T18:08:51.886Z,64.70
2023-02-25T18:12:36.033Z,64.40
2023-02-25T18:16:37.495Z,64.70
2023-02-25T18:20:43.577Z,64.80
2023-02-25T18:24:52.656Z,64.90
2023-02-25T18:28:34.563Z,64.90
2023-02-25T18:32:16.431Z,65.10
2023-02-25T18:35:58.914Z,65.30
2023-02-25T18:39:40.888Z,65.40
2023-02-25T18:43:28.963Z,65.60
2023-02-25T18:47:10.668Z,65.70
2023-02-25T18:50:52.603Z,65.70
2023-02-25T18:54:35.137Z,65.80
2023-02-25T18:58:19.632Z,65.90
2023-02-25T19:02:01.356Z,66.00
2023-02-25T19:05:43.921Z,66.20
2023-02-25T19:09:25.710Z,66.30
2023-02-25T19:13:14.661Z,66.40
2023-02-25T19:16:57.349Z,66.50
2023-02-25T19:20:39.988Z,66.70
2023-02-25T19:24:21.722Z,66.70
2023-02-25T19:28:05.260Z,66.80
2023-02-25T19:31:46.981Z,66.80
2023-02-25T19:35:29.655Z,66.80
2023-02-25T19:39:11.456Z,66.80
2023-02-25T19:42:53.237Z,66.80
2023-02-25T19:46:35.086Z,66.80
2023-02-25T19:50:19.070Z,66.90
2023-02-25T19:54:00.791Z,66.90
2023-02-25T19:57:42.718Z,67.00
2023-02-25T20:01:24.498Z,67.00
2023-02-25T20:05:07.308Z,67.10
2023-02-25T20:08:54.614Z,67.20
2023-02-25T20:12:37.417Z,67.20
2023-02-25T20:16:21.212Z,67.40
2023-02-25T20:20:03.637Z,67.40
2023-02-25T20:23:46.367Z,67.50
2023-02-25T20:27:28.131Z,67.60
2023-02-25T20:31:12.738Z,67.60
2023-02-25T20:34:54.656Z,67.60
2023-02-25T20:38:40.454Z,67.70
2023-02-25T20:42:25.247Z,67.70
2023-02-25T20:46:07.339Z,67.80
2023-02-25T20:49:50.145Z,67.90
2023-02-25T20:53:32.482Z,68.10
2023-02-25T20:57:16.311Z,68.20
2023-02-25T21:00:58.036Z,68.30
2023-02-25T21:04:39.921Z,68.40
2023-02-25T21:08:21.727Z,68.70
2023-02-25T21:12:03.686Z,68.70
2023-02-25T21:15:45.541Z,68.80
2023-02-25T21:19:30.983Z,69.00
2023-02-25T21:23:12.700Z,69.10
2023-02-25T21:26:54.603Z,69.20
2023-02-25T21:30:37.990Z,69.40
2023-02-25T21:34:20.084Z,69.40
2023-02-25T21:38:01.980Z,69.60
2023-02-25T21:41:45.122Z,69.60
2023-02-25T21:45:26.910Z,69.50
2023-02-25T21:49:10.555Z,69.60
2023-02-25T21:52:52.391Z,69.70
2023-02-25T21:56:34.536Z,69.70
2023-02-25T22:00:16.714Z,69.80
2023-02-25T22:03:58.996Z,69.80
2023-02-25T22:07:40.843Z,70.00
2023-02-25T22:11:31.744Z,70.10
2023-02-25T22:15:13.819Z,70.20
2023-02-25T22:18:56.111Z,70.30
2023-02-25T22:22:38.544Z,70.40
2023-02-25T22:26:23.884Z,70.40
2023-02-25T22:30:06.757Z,70.40
2023-02-25T22:33:49.058Z,70.50
2023-02-25T22:37:32.328Z,70.60
2023-02-25T22:41:26.721Z,70.60
2023-02-25T22:45:08.866Z,70.90
2023-02-25T22:48:51.756Z,70.70
2023-02-25T22:52:34.509Z,70.70
2023-02-25T22:56:16.563Z,70.80
2023-02-25T22:59:58.272Z,70.80
2023-02-25T23:03:40.505Z,70.90
2023-02-25T23:07:22.290Z,70.90
2023-02-25T23:11:27.005Z,71.00
2023-02-25T23:15:09.417Z,71.50
2023-02-25T23:18:52.233Z,71.10
2023-02-25T23:22:35.099Z,71.00
2023-02-25T23:26:20.141Z,71.20
2023-02-25T23:30:02.148Z,71.20
2023-02-25T23:33:43.835Z,71.30
2023-02-25T23:37:25.583Z,71.30
2023-02-25T23:41:07.407Z,71.40
2023-02-25T23:44:49.226Z,71.50
2023-02-25T23:48:31.214Z,71.60
2023-02-25T23:52:13.110Z,71.70
2023-02-25T23:55:54.861Z,71.70
2023-02-25T23:59:37.377Z,71.80
